sensor_id;sensor_type;location;lat;lon;timestamp;pressure;altitude;pressure_sealevel;temperature;humidity
58243;BME280;50118;53.232;8.252;2023-07-20T00:02:15;101189.13;;;13.58;100.00
58243;BME280;50118;53.232;8.252;2023-07-20T00:04:40;101192.97;;;13.56;100.00
58243;BME280;50118;53.232;8.252;2023-07-20T00:07:06;101194.25;;;13.52;100.00
58243;BME280;50118;53.232;8.252;2023-07-20T00:09:31;101184.72;;;13.49;100.00
58243;BME280;50118;53.232;8.252;2023-07-20T00:11:57;101181.50;;;13.45;100.00
58243;BME280;50118;53.232;8.252;2023-07-20T00:14:25;101185.16;;;13.44;100.00
58243;BME280;50118;53.232;8.252;2023-07-20T00:16:51;101173.78;;;13.42;100.00
58243;BME280;50118;53.232;8.252;2023-07-20T00:19:27;101177.78;;;13.38;100.00
58243;BME280;50118;53.232;8.252;2023-07-20T00:21:53;101171.94;;;13.43;100.00
58243;BME280;50118;53.232;8.252;2023-07-20T00:24:20;101181.13;;;13.40;100.00
58243;BME280;50118;53.232;8.252;2023-07-20T00:26:45;101179.13;;;13.42;100.00
58243;BME280;50118;53.232;8.252;2023-07-20T00:29:10;101174.09;;;13.39;100.00
58243;BME280;50118;53.232;8.252;2023-07-20T00:31:36;101172.72;;;13.35;100.00
58243;BME280;50118;53.232;8.252;2023-07-20T00:34:05;101185.81;;;13.38;100.00
58243;BME280;50118;53.232;8.252;2023-07-20T00:36:31;101172.44;;;13.38;100.00
58243;BME280;50118;53.232;8.252;2023-07-20T00:38:56;101179.53;;;13.48;100.00
58243;BME280;50118;53.232;8.252;2023-07-20T00:41:22;101182.50;;;13.44;100.00
58243;BME280;50118;53.232;8.252;2023-07-20T00:43:47;101187.25;;;13.51;100.00
58243;BME280;50118;53.232;8.252;2023-07-20T00:46:13;101190.53;;;13.44;100.00
58243;BME280;50118;53.232;8.252;2023-07-20T00:48:40;101187.41;;;13.49;100.00
58243;BME280;50118;53.232;8.252;2023-07-20T00:51:05;101182.66;;;13.43;100.00
58243;BME280;50118;53.232;8.252;2023-07-20T00:53:31;101185.09;;;13.36;100.00
58243;BME280;50118;53.232;8.252;2023-07-20T00:55:57;101187.75;;;13.36;100.00
58243;BME280;50118;53.232;8.252;2023-07-20T00:58:23;101186.78;;;13.37;100.00
58243;BME280;50118;53.232;8.252;2023-07-20T01:00:49;101189.47;;;13.37;100.00
58243;BME280;50118;53.232;8.252;2023-07-20T01:03:14;101188.47;;;13.38;100.00
58243;BME280;50118;53.232;8.252;2023-07-20T01:05:46;101186.09;;;13.35;100.00
58243;BME280;50118;53.232;8.252;2023-07-20T01:08:19;101187.47;;;13.39;100.00
58243;BME280;50118;53.232;8.252;2023-07-20T01:10:54;101189.38;;;13.47;100.00
58243;BME280;50118;53.232;8.252;2023-07-20T01:13:23;101197.47;;;13.37;100.00
58243;BME280;50118;53.232;8.252;2023-07-20T01:15:57;101198.47;;;13.36;100.00
58243;BME280;50118;53.232;8.252;2023-07-20T01:18:25;101194.81;;;13.37;100.00
58243;BME280;50118;53.232;8.252;2023-07-20T01:20:52;101189.84;;;13.42;100.00
58243;BME280;50118;53.232;8.252;2023-07-20T01:23:36;101192.38;;;13.44;100.00
58243;BME280;50118;53.232;8.252;2023-07-20T01:31:33;101184.78;;;13.39;100.00
58243;BME280;50118;53.232;8.252;2023-07-20T01:34:01;101186.47;;;13.40;100.00
58243;BME280;50118;53.232;8.252;2023-07-20T01:36:31;101190.44;;;13.36;100.00
58243;BME280;50118;53.232;8.252;2023-07-20T01:38:58;101189.91;;;13.33;100.00
58243;BME280;50118;53.232;8.252;2023-07-20T01:41:24;101185.69;;;13.30;100.00
58243;BME280;50118;53.232;8.252;2023-07-20T01:43:50;101182.31;;;13.28;100.00
58243;BME280;50118;53.232;8.252;2023-07-20T01:46:15;101187.69;;;13.28;100.00
58243;BME280;50118;53.232;8.252;2023-07-20T01:48:41;101178.66;;;13.29;100.00
58243;BME280;50118;53.232;8.252;2023-07-20T01:51:06;101184.69;;;13.31;100.00
58243;BME280;50118;53.232;8.252;2023-07-20T01:53:32;101182.41;;;13.36;100.00
58243;BME280;50118;53.232;8.252;2023-07-20T01:55:57;101184.00;;;13.29;100.00
58243;BME280;50118;53.232;8.252;2023-07-20T01:58:23;101188.66;;;13.27;100.00
58243;BME280;50118;53.232;8.252;2023-07-20T02:00:49;101183.31;;;13.27;100.00
58243;BME280;50118;53.232;8.252;2023-07-20T02:03:15;101179.28;;;13.23;100.00
58243;BME280;50118;53.232;8.252;2023-07-20T02:05:44;101181.47;;;13.27;100.00
58243;BME280;50118;53.232;8.252;2023-07-20T02:08:10;101186.56;;;13.21;100.00
58243;BME280;50118;53.232;8.252;2023-07-20T02:10:36;101180.94;;;13.24;100.00
58243;BME280;50118;53.232;8.252;2023-07-20T02:13:02;101189.97;;;13.23;100.00
58243;BME280;50118;53.232;8.252;2023-07-20T02:15:27;101183.91;;;13.21;100.00
58243;BME280;50118;53.232;8.252;2023-07-20T02:17:54;101182.94;;;13.22;100.00
58243;BME280;50118;53.232;8.252;2023-07-20T02:20:22;101181.38;;;13.19;100.00
58243;BME280;50118;53.232;8.252;2023-07-20T02:22:47;101180.94;;;13.24;100.00
58243;BME280;50118;53.232;8.252;2023-07-20T02:25:13;101177.28;;;13.25;100.00
58243;BME280;50118;53.232;8.252;2023-07-20T02:27:38;101176.22;;;13.18;100.00
58243;BME280;50118;53.232;8.252;2023-07-20T02:30:05;101175.50;;;13.16;100.00
58243;BME280;50118;53.232;8.252;2023-07-20T02:32:31;101171.44;;;13.12;100.00
58243;BME280;50118;53.232;8.252;2023-07-20T02:35:00;101175.78;;;13.13;100.00
58243;BME280;50118;53.232;8.252;2023-07-20T02:37:25;101175.72;;;13.04;100.00
58243;BME280;50118;53.232;8.252;2023-07-20T02:39:51;101182.44;;;13.08;100.00
58243;BME280;50118;53.232;8.252;2023-07-20T02:42:16;101182.44;;;13.08;100.00
58243;BME280;50118;53.232;8.252;2023-07-20T02:44:42;101182.44;;;13.08;100.00
58243;BME280;50118;53.232;8.252;2023-07-20T02:47:07;101181.47;;;13.10;100.00
58243;BME280;50118;53.232;8.252;2023-07-20T02:49:33;101170.78;;;13.10;100.00
58243;BME280;50118;53.232;8.252;2023-07-20T02:51:58;101175.97;;;13.11;100.00
58243;BME280;50118;53.232;8.252;2023-07-20T02:54:24;101177.09;;;13.08;100.00
58243;BME280;50118;53.232;8.252;2023-07-20T02:56:49;101179.09;;;13.06;100.00
58243;BME280;50118;53.232;8.252;2023-07-20T02:59:15;101181.13;;;13.13;100.00
58243;BME280;50118;53.232;8.252;2023-07-20T03:01:40;101175.72;;;13.04;100.00
58243;BME280;50118;53.232;8.252;2023-07-20T03:04:07;101180.06;;;13.05;100.00
58243;BME280;50118;53.232;8.252;2023-07-20T03:06:35;101187.22;;;13.15;100.00
58243;BME280;50118;53.232;8.252;2023-07-20T03:09:01;101195.13;;;13.06;100.00
58243;BME280;50118;53.232;8.252;2023-07-20T03:11:27;101191.06;;;13.02;100.00
58243;BME280;50118;53.232;8.252;2023-07-20T03:13:52;101197.13;;;13.04;100.00
58243;BME280;50118;53.232;8.252;2023-07-20T03:16:19;101195.28;;;13.05;100.00
58243;BME280;50118;53.232;8.252;2023-07-20T03:18:47;101193.34;;;12.97;100.00
58243;BME280;50118;53.232;8.252;2023-07-20T03:21:13;101198.00;;;12.95;100.00
58243;BME280;50118;53.232;8.252;2023-07-20T03:23:42;101199.16;;;12.93;100.00
58243;BME280;50118;53.232;8.252;2023-07-20T03:26:07;101197.59;;;12.90;100.00
58243;BME280;50118;53.232;8.252;2023-07-20T03:28:36;101194.84;;;12.82;100.00
58243;BME280;50118;53.232;8.252;2023-07-20T03:31:03;101198.81;;;12.78;100.00
58243;BME280;50118;53.232;8.252;2023-07-20T03:33:29;101205.47;;;12.74;100.00
58243;BME280;50118;53.232;8.252;2023-07-20T03:35:56;101203.75;;;12.73;100.00
58243;BME280;50118;53.232;8.252;2023-07-20T03:38:25;101203.06;;;12.70;100.00
58243;BME280;50118;53.232;8.252;2023-07-20T03:40:51;101204.06;;;12.69;100.00
58243;BME280;50118;53.232;8.252;2023-07-20T03:43:17;101201.66;;;12.66;100.00
58243;BME280;50118;53.232;8.252;2023-07-20T03:45:43;101199.78;;;12.77;100.00
58243;BME280;50118;53.232;8.252;2023-07-20T03:48:09;101202.94;;;12.72;100.00
58243;BME280;50118;53.232;8.252;2023-07-20T03:50:34;101204.47;;;12.65;100.00
58243;BME280;50118;53.232;8.252;2023-07-20T03:53:00;101197.47;;;12.64;100.00
58243;BME280;50118;53.232;8.252;2023-07-20T03:55:25;101200.97;;;12.64;100.00
58243;BME280;50118;53.232;8.252;2023-07-20T03:57:51;101202.97;;;12.62;100.00
58243;BME280;50118;53.232;8.252;2023-07-20T04:00:17;101204.34;;;12.66;100.00
58243;BME280;50118;53.232;8.252;2023-07-20T04:02:43;101201.97;;;12.63;100.00
58243;BME280;50118;53.232;8.252;2023-07-20T04:05:09;101204.06;;;12.69;100.00
58243;BME280;50118;53.232;8.252;2023-07-20T04:07:34;101207.16;;;12.65;100.00
58243;BME280;50118;53.232;8.252;2023-07-20T04:10:00;101204.34;;;12.66;100.00
58243;BME280;50118;53.232;8.252;2023-07-20T04:12:25;101210.81;;;12.74;100.00
58243;BME280;50118;53.232;8.252;2023-07-20T04:14:51;101207.56;;;12.70;100.00
58243;BME280;50118;53.232;8.252;2023-07-20T04:17:17;101211.38;;;12.67;100.00
58243;BME280;50118;53.232;8.252;2023-07-20T04:19:42;101210.81;;;12.74;100.00
58243;BME280;50118;53.232;8.252;2023-07-20T04:22:08;101207.94;;;12.75;100.00
58243;BME280;50118;53.232;8.252;2023-07-20T04:24:34;101213.16;;;13.04;100.00
58243;BME280;50118;53.232;8.252;2023-07-20T04:26:59;101216.00;;;13.49;100.00
58243;BME280;50118;53.232;8.252;2023-07-20T04:29:24;101225.09;;;13.56;100.00
58243;BME280;50118;53.232;8.252;2023-07-20T04:31:50;101220.00;;;14.07;100.00
58243;BME280;50118;53.232;8.252;2023-07-20T04:34:15;101222.88;;;14.39;100.00
58243;BME280;50118;53.232;8.252;2023-07-20T04:36:41;101225.56;;;14.66;100.00
58243;BME280;50118;53.232;8.252;2023-07-20T04:39:06;101214.78;;;15.51;100.00
58243;BME280;50118;53.232;8.252;2023-07-20T04:41:33;101225.22;;;15.87;100.00
58243;BME280;50118;53.232;8.252;2023-07-20T04:43:59;101225.13;;;17.32;100.00
58243;BME280;50118;53.232;8.252;2023-07-20T04:46:25;101232.53;;;18.22;100.00
58243;BME280;50118;53.232;8.252;2023-07-20T04:48:50;101230.88;;;19.11;100.00
58243;BME280;50118;53.232;8.252;2023-07-20T04:51:16;101231.63;;;19.41;90.45
58243;BME280;50118;53.232;8.252;2023-07-20T04:53:45;101228.44;;;20.02;89.94
58243;BME280;50118;53.232;8.252;2023-07-20T04:56:11;101231.31;;;20.22;84.49
58243;BME280;50118;53.232;8.252;2023-07-20T04:58:36;101227.84;;;21.05;85.28
58243;BME280;50118;53.232;8.252;2023-07-20T05:01:01;101239.63;;;21.39;78.02
58243;BME280;50118;53.232;8.252;2023-07-20T05:03:27;101234.91;;;22.48;72.68
58243;BME280;50118;53.232;8.252;2023-07-20T05:05:53;101244.69;;;23.21;64.92
58243;BME280;50118;53.232;8.252;2023-07-20T05:08:18;101240.84;;;23.99;61.03
58243;BME280;50118;53.232;8.252;2023-07-20T05:10:44;101242.84;;;23.15;62.69
58243;BME280;50118;53.232;8.252;2023-07-20T05:13:09;101244.81;;;23.33;63.70
58243;BME280;50118;53.232;8.252;2023-07-20T05:15:34;101243.06;;;23.52;64.83
58243;BME280;50118;53.232;8.252;2023-07-20T05:18:00;101237.56;;;23.26;62.12
58243;BME280;50118;53.232;8.252;2023-07-20T05:20:26;101237.72;;;24.20;59.71
58243;BME280;50118;53.232;8.252;2023-07-20T05:22:52;101245.06;;;24.20;59.22
58243;BME280;50118;53.232;8.252;2023-07-20T05:25:18;101245.22;;;24.25;56.56
58243;BME280;50118;53.232;8.252;2023-07-20T05:27:44;101242.31;;;24.45;56.83
58243;BME280;50118;53.232;8.252;2023-07-20T05:30:10;101243.41;;;25.30;55.86
58243;BME280;50118;53.232;8.252;2023-07-20T05:32:36;101248.06;;;25.11;54.54
58243;BME280;50118;53.232;8.252;2023-07-20T05:35:01;101250.66;;;24.87;58.86
58243;BME280;50118;53.232;8.252;2023-07-20T05:37:27;101251.38;;;25.31;54.26
58243;BME280;50118;53.232;8.252;2023-07-20T05:39:52;101251.19;;;25.45;55.00
58243;BME280;50118;53.232;8.252;2023-07-20T05:42:18;101255.63;;;26.12;51.07
58243;BME280;50118;53.232;8.252;2023-07-20T05:44:43;101256.47;;;26.36;52.59
58243;BME280;50118;53.232;8.252;2023-07-20T05:47:09;101261.41;;;27.27;49.41
58243;BME280;50118;53.232;8.252;2023-07-20T05:49:35;101250.47;;;25.91;50.85
58243;BME280;50118;53.232;8.252;2023-07-20T05:52:00;101251.22;;;25.99;49.83
58243;BME280;50118;53.232;8.252;2023-07-20T05:54:26;101251.41;;;27.32;48.42
58243;BME280;50118;53.232;8.252;2023-07-20T05:56:52;101259.22;;;27.00;46.11
58243;BME280;50118;53.232;8.252;2023-07-20T05:59:17;101257.59;;;27.28;47.06
58243;BME280;50118;53.232;8.252;2023-07-20T06:01:43;101253.00;;;26.64;46.81
58243;BME280;50118;53.232;8.252;2023-07-20T06:04:09;101257.38;;;24.22;57.46
58243;BME280;50118;53.232;8.252;2023-07-20T06:06:34;101259.78;;;26.02;52.11
58243;BME280;50118;53.232;8.252;2023-07-20T06:09:00;101259.25;;;26.88;48.59
58243;BME280;50118;53.232;8.252;2023-07-20T06:11:29;101262.41;;;25.18;51.38
58243;BME280;50118;53.232;8.252;2023-07-20T06:13:55;101262.88;;;25.76;51.54
58243;BME280;50118;53.232;8.252;2023-07-20T06:16:21;101262.97;;;25.08;52.95
58243;BME280;50118;53.232;8.252;2023-07-20T06:18:46;101267.75;;;26.39;50.54
58243;BME280;50118;53.232;8.252;2023-07-20T06:21:12;101264.44;;;25.41;49.65
58243;BME280;50118;53.232;8.252;2023-07-20T06:23:38;101266.22;;;25.35;52.21
58243;BME280;50118;53.232;8.252;2023-07-20T06:26:03;101269.91;;;25.41;51.92
58243;BME280;50118;53.232;8.252;2023-07-20T06:28:28;101273.00;;;25.87;48.20
58243;BME280;50118;53.232;8.252;2023-07-20T06:31:02;101262.00;;;24.84;50.94
58243;BME280;50118;53.232;8.252;2023-07-20T06:33:27;101272.97;;;24.34;53.46
58243;BME280;50118;53.232;8.252;2023-07-20T06:35:53;101269.25;;;25.09;51.12
58243;BME280;50118;53.232;8.252;2023-07-20T06:38:18;101270.44;;;25.13;50.81
58243;BME280;50118;53.232;8.252;2023-07-20T06:40:46;101275.47;;;24.79;52.00
58243;BME280;50118;53.232;8.252;2023-07-20T06:43:11;101281.88;;;26.83;46.97
58243;BME280;50118;53.232;8.252;2023-07-20T06:45:37;101283.75;;;27.24;45.07
58243;BME280;50118;53.232;8.252;2023-07-20T06:48:02;101273.78;;;26.89;43.48
58243;BME280;50118;53.232;8.252;2023-07-20T06:50:28;101281.03;;;26.24;46.07
58243;BME280;50118;53.232;8.252;2023-07-20T06:52:54;101263.19;;;25.56;49.20
58243;BME280;50118;53.232;8.252;2023-07-20T06:55:19;101277.50;;;25.81;48.81
58243;BME280;50118;53.232;8.252;2023-07-20T06:57:45;101272.47;;;26.56;46.18
58243;BME280;50118;53.232;8.252;2023-07-20T07:00:11;101276.28;;;26.31;45.87
58243;BME280;50118;53.232;8.252;2023-07-20T07:02:36;101266.22;;;25.78;45.45
58243;BME280;50118;53.232;8.252;2023-07-20T07:05:02;101266.53;;;24.90;46.64
58243;BME280;50118;53.232;8.252;2023-07-20T07:07:27;101270.44;;;25.13;47.90
58243;BME280;50118;53.232;8.252;2023-07-20T07:09:52;101277.72;;;25.38;47.64
58243;BME280;50118;53.232;8.252;2023-07-20T07:12:18;101273.97;;;24.14;51.15
58243;BME280;50118;53.232;8.252;2023-07-20T07:14:43;101279.94;;;24.04;51.58
58243;BME280;50118;53.232;8.252;2023-07-20T07:17:08;101275.06;;;24.13;52.96
58243;BME280;50118;53.232;8.252;2023-07-20T07:19:34;101279.50;;;24.51;51.47
58243;BME280;50118;53.232;8.252;2023-07-20T07:22:00;101283.34;;;24.87;49.91
58243;BME280;50118;53.232;8.252;2023-07-20T07:24:26;101280.53;;;23.81;52.10
58243;BME280;50118;53.232;8.252;2023-07-20T07:26:53;101283.84;;;23.06;55.67
58243;BME280;50118;53.232;8.252;2023-07-20T07:29:18;101289.09;;;24.10;51.33
58243;BME280;50118;53.232;8.252;2023-07-20T07:31:43;101287.75;;;24.19;50.88
58243;BME280;50118;53.232;8.252;2023-07-20T07:34:09;101287.41;;;24.59;50.76
58243;BME280;50118;53.232;8.252;2023-07-20T07:36:34;101282.56;;;23.02;52.22
58243;BME280;50118;53.232;8.252;2023-07-20T07:38:59;101292.41;;;22.90;54.16
58243;BME280;50118;53.232;8.252;2023-07-20T07:41:25;101294.81;;;23.70;51.15
58243;BME280;50118;53.232;8.252;2023-07-20T07:43:50;101286.63;;;23.38;50.82
58243;BME280;50118;53.232;8.252;2023-07-20T07:46:16;101290.97;;;23.78;50.82
58243;BME280;50118;53.232;8.252;2023-07-20T07:48:42;101296.41;;;21.74;56.38
58243;BME280;50118;53.232;8.252;2023-07-20T07:51:08;101287.66;;;21.65;56.51
58243;BME280;50118;53.232;8.252;2023-07-20T07:53:34;101296.88;;;21.91;56.32
58243;BME280;50118;53.232;8.252;2023-07-20T07:56:01;101295.41;;;21.88;56.42
58243;BME280;50118;53.232;8.252;2023-07-20T07:58:28;101296.03;;;21.83;58.93
58243;BME280;50118;53.232;8.252;2023-07-20T08:00:54;101294.34;;;21.62;60.91
58243;BME280;50118;53.232;8.252;2023-07-20T08:05:44;101297.63;;;21.51;58.99
58243;BME280;50118;53.232;8.252;2023-07-20T08:08:13;101288.47;;;21.66;56.16
58243;BME280;50118;53.232;8.252;2023-07-20T08:10:38;101289.19;;;22.34;53.52
58243;BME280;50118;53.232;8.252;2023-07-20T08:13:04;101293.53;;;22.55;52.63
58243;BME280;50118;53.232;8.252;2023-07-20T08:15:29;101299.25;;;23.26;54.07
58243;BME280;50118;53.232;8.252;2023-07-20T08:17:54;101300.00;;;23.40;54.55
58243;BME280;50118;53.232;8.252;2023-07-20T08:20:20;101304.59;;;23.39;51.94
58243;BME280;50118;53.232;8.252;2023-07-20T08:22:51;101300.69;;;23.99;47.99
58243;BME280;50118;53.232;8.252;2023-07-20T08:25:17;101296.22;;;23.41;50.08
58243;BME280;50118;53.232;8.252;2023-07-20T08:27:42;101298.81;;;23.99;48.31
58243;BME280;50118;53.232;8.252;2023-07-20T08:30:08;101295.19;;;24.31;47.38
58243;BME280;50118;53.232;8.252;2023-07-20T08:32:33;101293.56;;;24.48;48.00
58243;BME280;50118;53.232;8.252;2023-07-20T08:34:59;101294.63;;;24.47;47.62
58243;BME280;50118;53.232;8.252;2023-07-20T08:37:24;101300.81;;;23.85;50.01
58243;BME280;50118;53.232;8.252;2023-07-20T08:39:49;101299.50;;;24.20;48.69
58243;BME280;50118;53.232;8.252;2023-07-20T08:42:16;101297.66;;;22.85;50.76
58243;BME280;50118;53.232;8.252;2023-07-20T08:44:42;101303.16;;;22.18;55.06
58243;BME280;50118;53.232;8.252;2023-07-20T08:47:10;101304.41;;;22.22;56.18
58243;BME280;50118;53.232;8.252;2023-07-20T08:49:39;101297.50;;;22.26;53.76
58243;BME280;50118;53.232;8.252;2023-07-20T08:52:05;101303.38;;;21.96;57.32
58243;BME280;50118;53.232;8.252;2023-07-20T08:54:31;101318.06;;;21.47;58.83
58243;BME280;50118;53.232;8.252;2023-07-20T08:57:04;101324.25;;;20.14;64.94
58243;BME280;50118;53.232;8.252;2023-07-20T08:59:31;101331.88;;;18.48;77.46
58243;BME280;50118;53.232;8.252;2023-07-20T09:01:58;101326.59;;;18.17;82.91
58243;BME280;50118;53.232;8.252;2023-07-20T09:04:24;101325.56;;;18.41;86.88
58243;BME280;50118;53.232;8.252;2023-07-20T09:06:50;101315.50;;;18.50;86.18
58243;BME280;50118;53.232;8.252;2023-07-20T09:09:16;101319.88;;;19.19;83.87
58243;BME280;50118;53.232;8.252;2023-07-20T09:11:41;101325.09;;;20.15;77.32
58243;BME280;50118;53.232;8.252;2023-07-20T09:14:08;101322.47;;;20.50;70.63
58243;BME280;50118;53.232;8.252;2023-07-20T09:16:53;101320.78;;;21.12;67.27
58243;BME280;50118;53.232;8.252;2023-07-20T09:19:20;101313.09;;;21.57;62.76
58243;BME280;50118;53.232;8.252;2023-07-20T09:21:50;101315.66;;;20.82;65.00
58243;BME280;50118;53.232;8.252;2023-07-20T09:24:17;101321.00;;;21.66;59.96
58243;BME280;50118;53.232;8.252;2023-07-20T09:26:44;101316.91;;;21.83;59.16
58243;BME280;50118;53.232;8.252;2023-07-20T09:29:10;101321.09;;;22.12;52.95
58243;BME280;50118;53.232;8.252;2023-07-20T09:31:37;101317.75;;;22.04;55.55
58243;BME280;50118;53.232;8.252;2023-07-20T09:34:04;101315.63;;;21.79;57.45
58243;BME280;50118;53.232;8.252;2023-07-20T09:36:33;101320.66;;;22.75;52.94
58243;BME280;50118;53.232;8.252;2023-07-20T09:38:59;101318.41;;;22.46;52.86
58243;BME280;50118;53.232;8.252;2023-07-20T09:41:25;101312.97;;;22.19;55.42
58243;BME280;50118;53.232;8.252;2023-07-20T09:43:52;101305.84;;;21.30;59.86
58243;BME280;50118;53.232;8.252;2023-07-20T09:46:18;101317.69;;;21.15;60.27
58243;BME280;50118;53.232;8.252;2023-07-20T09:48:52;101304.06;;;20.67;64.07
58243;BME280;50118;53.232;8.252;2023-07-20T09:51:21;101314.56;;;20.48;63.33
58243;BME280;50118;53.232;8.252;2023-07-20T09:53:47;101313.28;;;21.14;57.17
58243;BME280;50118;53.232;8.252;2023-07-20T09:56:16;101313.00;;;21.44;58.71
58243;BME280;50118;53.232;8.252;2023-07-20T09:58:42;101306.69;;;21.92;51.90
58243;BME280;50118;53.232;8.252;2023-07-20T10:01:10;101299.38;;;22.59;49.79
58243;BME280;50118;53.232;8.252;2023-07-20T10:03:37;101308.69;;;21.56;51.39
58243;BME280;50118;53.232;8.252;2023-07-20T10:06:06;101312.09;;;20.53;55.58
58243;BME280;50118;53.232;8.252;2023-07-20T10:08:38;101309.44;;;21.37;53.01
58243;BME280;50118;53.232;8.252;2023-07-20T10:11:08;101306.53;;;20.97;54.34
58243;BME280;50118;53.232;8.252;2023-07-20T10:13:37;101305.19;;;21.69;51.65
58243;BME280;50118;53.232;8.252;2023-07-20T10:16:09;101303.47;;;23.08;50.19
58243;BME280;50118;53.232;8.252;2023-07-20T10:18:41;101301.94;;;23.26;49.24
58243;BME280;50118;53.232;8.252;2023-07-20T10:21:11;101306.13;;;23.22;48.46
58243;BME280;50118;53.232;8.252;2023-07-20T10:23:38;101303.16;;;24.32;44.89
58243;BME280;50118;53.232;8.252;2023-07-20T10:26:04;101306.09;;;23.74;45.93
58243;BME280;50118;53.232;8.252;2023-07-20T10:28:30;101298.81;;;24.24;44.81
58243;BME280;50118;53.232;8.252;2023-07-20T10:30:56;101301.50;;;23.29;46.67
58243;BME280;50118;53.232;8.252;2023-07-20T10:33:21;101296.47;;;23.71;47.61
58243;BME280;50118;53.232;8.252;2023-07-20T10:35:55;101298.56;;;22.05;51.62
58243;BME280;50118;53.232;8.252;2023-07-20T10:38:39;101297.44;;;21.59;52.26
58243;BME280;50118;53.232;8.252;2023-07-20T10:41:15;101295.22;;;22.23;50.97
58243;BME280;50118;53.232;8.252;2023-07-20T10:43:45;101295.97;;;23.10;44.51
58243;BME280;50118;53.232;8.252;2023-07-20T10:46:11;101291.78;;;23.85;46.08
58243;BME280;50118;53.232;8.252;2023-07-20T10:49:04;101296.66;;;25.63;41.14
58243;BME280;50118;53.232;8.252;2023-07-20T10:51:31;101298.19;;;25.10;45.23
58243;BME280;50118;53.232;8.252;2023-07-20T10:54:03;101308.09;;;26.25;40.35
58243;BME280;50118;53.232;8.252;2023-07-20T10:56:29;101301.72;;;25.89;41.06
58243;BME280;50118;53.232;8.252;2023-07-20T10:59:00;101306.31;;;24.54;46.02
58243;BME280;50118;53.232;8.252;2023-07-20T11:01:30;101298.75;;;23.74;50.79
58243;BME280;50118;53.232;8.252;2023-07-20T11:03:59;101316.94;;;22.63;55.08
58243;BME280;50118;53.232;8.252;2023-07-20T11:11:30;101306.03;;;19.80;65.88
58243;BME280;50118;53.232;8.252;2023-07-20T11:14:00;101320.94;;;19.39;72.16
58243;BME280;50118;53.232;8.252;2023-07-20T11:16:41;101323.44;;;18.52;83.88
58243;BME280;50118;53.232;8.252;2023-07-20T11:19:15;101328.13;;;18.35;90.70
58243;BME280;50118;53.232;8.252;2023-07-20T11:21:46;101326.44;;;18.34;87.97
58243;BME280;50118;53.232;8.252;2023-07-20T11:24:14;101328.00;;;18.66;91.67
58243;BME280;50118;53.232;8.252;2023-07-20T11:26:41;101329.03;;;18.65;95.91
58243;BME280;50118;53.232;8.252;2023-07-20T11:29:07;101321.75;;;18.89;87.19
58243;BME280;50118;53.232;8.252;2023-07-20T11:31:40;101326.84;;;18.83;86.37
58243;BME280;50118;53.232;8.252;2023-07-20T11:34:09;101323.22;;;19.21;84.27
58243;BME280;50118;53.232;8.252;2023-07-20T11:36:39;101328.72;;;18.45;79.48
58243;BME280;50118;53.232;8.252;2023-07-20T11:39:07;101332.25;;;18.83;86.13
58243;BME280;50118;53.232;8.252;2023-07-20T11:41:34;101329.25;;;18.93;83.60
58243;BME280;50118;53.232;8.252;2023-07-20T11:44:00;101332.25;;;18.83;75.49
58243;BME280;50118;53.232;8.252;2023-07-20T11:46:27;101328.09;;;18.73;74.00
58243;BME280;50118;53.232;8.252;2023-07-20T11:48:58;101321.56;;;18.52;72.11
58243;BME280;50118;53.232;8.252;2023-07-20T11:51:26;101327.78;;;19.06;72.76
58243;BME280;50118;53.232;8.252;2023-07-20T11:53:51;101330.34;;;19.44;69.84
58243;BME280;50118;53.232;8.252;2023-07-20T11:56:17;101331.75;;;19.39;71.77
58243;BME280;50118;53.232;8.252;2023-07-20T11:58:45;101345.66;;;19.21;70.45
58243;BME280;50118;53.232;8.252;2023-07-20T12:01:12;101326.81;;;19.43;69.78
58243;BME280;50118;53.232;8.252;2023-07-20T12:03:38;101333.13;;;19.50;72.00
58243;BME280;50118;53.232;8.252;2023-07-20T12:06:07;101324.81;;;20.31;63.82
58243;BME280;50118;53.232;8.252;2023-07-20T12:08:33;101333.69;;;21.10;56.43
58243;BME280;50118;53.232;8.252;2023-07-20T12:10:59;101320.03;;;21.32;56.27
58243;BME280;50118;53.232;8.252;2023-07-20T12:13:35;101319.88;;;22.35;52.99
58243;BME280;50118;53.232;8.252;2023-07-20T12:16:08;101318.34;;;22.79;53.47
58243;BME280;50118;53.232;8.252;2023-07-20T12:18:37;101310.59;;;22.96;53.45
58243;BME280;50118;53.232;8.252;2023-07-20T12:21:02;101310.97;;;23.20;52.00
58243;BME280;50118;53.232;8.252;2023-07-20T12:23:43;101304.69;;;23.58;47.95
58243;BME280;50118;53.232;8.252;2023-07-20T12:26:10;101308.09;;;21.68;54.52
58243;BME280;50118;53.232;8.252;2023-07-20T12:28:41;101309.34;;;21.72;54.33
58243;BME280;50118;53.232;8.252;2023-07-20T12:31:10;101297.88;;;21.08;54.45
58243;BME280;50118;53.232;8.252;2023-07-20T12:33:37;101302.03;;;21.11;55.63
58243;BME280;50118;53.232;8.252;2023-07-20T12:36:04;101308.94;;;21.13;57.71
58243;BME280;50118;53.232;8.252;2023-07-20T12:38:30;101312.69;;;20.77;54.94
58243;BME280;50118;53.232;8.252;2023-07-20T12:40:56;101331.31;;;20.15;62.04
58243;BME280;50118;53.232;8.252;2023-07-20T12:43:22;101335.19;;;19.85;70.80
58243;BME280;50118;53.232;8.252;2023-07-20T12:45:47;101327.69;;;19.65;74.08
58243;BME280;50118;53.232;8.252;2023-07-20T12:48:13;101331.47;;;19.34;78.30
58243;BME280;50118;53.232;8.252;2023-07-20T12:50:38;101321.63;;;19.12;80.82
58243;BME280;50118;53.232;8.252;2023-07-20T12:53:04;101311.22;;;18.94;88.63
58243;BME280;50118;53.232;8.252;2023-07-20T12:55:29;101313.06;;;18.93;85.72
58243;BME280;50118;53.232;8.252;2023-07-20T12:57:55;101303.41;;;18.84;85.18